Time;durP1;ratioP1;P1;durP2;ratioP2;P2;SDS_P1;SDS_P2;PMS_P1;PMS_P2;Temp;Humidity;BMP_temperature;BMP_pressure;BME280_temperature;BME280_humidity;BME280_pressure;Samples;Min_cycle;Max_cycle;Signal;HPM_P1;HPM_P2
2021/08/13 00:01:06;;;;;;;5.40;4.03;;;;;;;24.16;44.54;100191.69;1842491;77;21049;-65
2021/08/13 00:03:32;;;;;;;5.42;4.20;;;;;;;24.14;44.55;100195.19;1844128;77;21471;-65
2021/08/13 00:05:58;;;;;;;5.15;3.95;;;;;;;24.12;44.59;100197.33;1827953;77;21012;-66
2021/08/13 00:08:25;;;;;;;4.58;4.17;;;;;;;24.10;44.61;100200.28;1837217;77;21134;-65
2021/08/13 00:10:52;;;;;;;4.45;4.05;;;;;;;24.10;44.63;100202.19;1847955;77;21010;-66
2021/08/13 00:13:19;;;;;;;5.08;3.90;;;;;;;24.08;44.64;100201.61;1867797;76;21012;-65
2021/08/13 00:15:45;;;;;;;4.45;3.80;;;;;;;24.06;44.71;100200.49;1855956;77;21521;-65
2021/08/13 00:18:13;;;;;;;5.85;4.10;;;;;;;24.05;44.74;100202.94;1851062;77;21057;-65
2021/08/13 00:20:40;;;;;;;4.60;3.85;;;;;;;24.02;44.77;100199.34;1850242;77;21109;-66
2021/08/13 00:23:07;;;;;;;5.00;4.00;;;;;;;24.01;44.73;100196.87;1840153;77;20981;-65
2021/08/13 00:25:33;;;;;;;4.60;3.87;;;;;;;23.98;44.83;100196.84;1827155;77;21077;-65
2021/08/13 00:28:00;;;;;;;5.25;4.20;;;;;;;23.97;44.81;100200.63;1847639;77;21607;-66
2021/08/13 00:30:27;;;;;;;4.33;3.92;;;;;;;23.95;44.87;100197.31;1847547;77;21041;-66
2021/08/13 00:32:54;;;;;;;5.80;4.33;;;;;;;23.94;44.93;100195.69;1845768;77;21143;-65
2021/08/13 00:35:23;;;;;;;5.80;3.80;;;;;;;23.92;44.94;100193.21;1806739;77;21001;-66
2021/08/13 00:37:51;;;;;;;5.80;4.17;;;;;;;23.90;45.01;100198.06;1807587;77;20994;-65
2021/08/13 00:40:17;;;;;;;5.90;4.20;;;;;;;23.90;45.06;100201.32;1850097;77;21559;-65
2021/08/13 00:42:44;;;;;;;4.85;4.00;;;;;;;23.88;45.11;100196.67;1847615;77;21011;-65
2021/08/13 00:45:11;;;;;;;4.33;3.92;;;;;;;23.85;45.15;100203.39;1844393;77;21780;-65
2021/08/13 00:47:40;;;;;;;5.30;4.25;;;;;;;23.83;45.13;100202.81;1823645;77;21061;-66
2021/08/13 00:50:10;;;;;;;4.55;4.15;;;;;;;23.82;45.17;100213.94;1802879;77;21018;-65
2021/08/13 00:52:45;;;;;;;5.03;4.22;;;;;;;23.79;45.19;100208.98;1828285;77;21029;-65
2021/08/13 00:55:15;;;;;;;4.83;4.15;;;;;;;23.77;45.28;100211.09;1840114;77;21537;-65
2021/08/13 00:57:57;;;;;;;6.40;3.62;;;;;;;23.74;45.27;100212.41;1847238;77;21006;-65
2021/08/13 01:00:31;;;;;;;6.10;4.97;;;;;;;23.72;45.28;100213.16;1847042;77;21069;-65
2021/08/13 01:02:58;;;;;;;5.58;4.55;;;;;;;23.69;45.33;100217.19;1847599;77;21045;-64
2021/08/13 01:05:26;;;;;;;5.25;4.75;;;;;;;23.67;45.37;100215.25;1820053;77;21021;-64
2021/08/13 01:07:53;;;;;;;4.78;4.28;;;;;;;23.65;45.41;100217.39;1851024;77;21029;-65
2021/08/13 01:10:24;;;;;;;5.08;4.22;;;;;;;23.62;45.47;100220.58;1847241;77;21512;-65
2021/08/13 01:13:11;;;;;;;6.25;4.08;;;;;;;23.61;45.52;100219.48;1791047;77;21001;-65
2021/08/13 01:15:42;;;;;;;16.77;12.68;;;;;;;23.60;45.56;100228.67;1827280;77;21076;-65
2021/08/13 01:18:32;;;;;;;15.88;11.75;;;;;;;23.57;45.64;100223.75;1839915;77;20962;-65
2021/08/13 01:21:36;;;;;;;8.55;6.95;;;;;;;23.55;45.70;100230.77;1810957;78;21014;-65
2021/08/13 01:24:11;;;;;;;7.03;5.35;;;;;;;23.52;45.77;100222.56;1824808;78;21516;-65
2021/08/13 01:26:53;;;;;;;6.05;5.37;;;;;;;23.49;45.76;100235.27;1831710;78;20990;-66
2021/08/13 01:29:42;;;;;;;8.60;4.50;;;;;;;23.46;45.81;100235.73;1816960;78;21026;-66
2021/08/13 01:32:33;;;;;;;5.28;4.30;;;;;;;23.43;45.89;100235.39;1824863;78;20981;-64
2021/08/13 01:35:06;;;;;;;5.97;4.22;;;;;;;23.40;46.04;100244.02;1836839;78;21534;-67
2021/08/13 01:37:35;;;;;;;4.70;4.17;;;;;;;23.36;46.12;100240.97;1777323;80;21122;-65
2021/08/13 01:40:04;;;;;;;5.30;4.33;;;;;;;23.34;46.18;100236.31;1761778;80;21065;-65
2021/08/13 01:42:33;;;;;;;9.98;4.37;;;;;;;23.32;46.24;100239.27;1769519;80;21013;-65
2021/08/13 01:45:05;;;;;;;4.60;3.90;;;;;;;23.31;46.23;100236.78;1778039;80;21120;-66
2021/08/13 01:47:35;;;;;;;5.22;4.22;;;;;;;23.29;46.28;100244.34;1759572;80;21041;-65
2021/08/13 01:50:02;;;;;;;4.92;4.20;;;;;;;23.27;46.29;100246.47;1744690;80;21135;-66
2021/08/13 01:52:30;;;;;;;5.10;4.10;;;;;;;23.25;46.36;100247.23;1723074;81;21975;-65
2021/08/13 01:54:56;;;;;;;6.12;4.00;;;;;;;23.23;46.37;100256.14;1800987;78;22004;-65
2021/08/13 01:57:23;;;;;;;5.92;4.62;;;;;;;23.21;46.44;100259.62;1784902;79;21014;-66
2021/08/13 01:59:52;;;;;;;5.80;4.17;;;;;;;23.19;46.51;100258.50;1816233;78;21445;-65
2021/08/13 02:02:19;;;;;;;4.15;3.62;;;;;;;23.16;46.54;100263.06;1822754;78;21052;-66
2021/08/13 02:04:51;;;;;;;5.08;4.30;;;;;;;23.15;46.58;100261.41;1825398;78;21628;-65
2021/08/13 02:07:18;;;;;;;4.92;3.87;;;;;;;23.12;46.61;100272.19;1834186;78;21073;-65
2021/08/13 02:09:45;;;;;;;5.53;4.62;;;;;;;23.11;46.66;100274.59;1827166;78;21060;-65
2021/08/13 02:12:13;;;;;;;5.20;4.28;;;;;;;23.10;46.69;100274.83;1828601;78;21045;-65
2021/08/13 02:14:40;;;;;;;5.45;4.60;;;;;;;23.07;46.76;100276.67;1818977;78;21830;-65
2021/08/13 02:17:19;;;;;;;5.40;4.20;;;;;;;23.04;46.84;100281.20;1807933;77;21042;-65
2021/08/13 02:20:04;;;;;;;6.83;4.00;;;;;;;23.03;46.92;100287.70;1808044;77;20982;-65
2021/08/13 02:22:33;;;;;;;13.60;11.33;;;;;;;22.99;47.03;100287.31;1819831;77;21523;-64
2021/08/13 02:25:03;;;;;;;14.45;11.12;;;;;;;22.96;47.15;100289.95;1808741;77;21056;-65
2021/08/13 02:27:32;;;;;;;9.70;7.80;;;;;;;22.93;47.24;100291.79;1831013;77;21114;-65
2021/08/13 02:29:59;;;;;;;6.20;5.60;;;;;;;22.91;47.29;100299.33;1848540;77;21092;-65
2021/08/13 02:32:27;;;;;;;8.60;5.47;;;;;;;22.90;47.29;100295.50;1819589;77;21029;-64
2021/08/13 02:34:54;;;;;;;6.58;5.08;;;;;;;22.87;47.41;100295.95;1807698;77;21009;-65
2021/08/13 02:37:56;;;;;;;5.42;4.30;;;;;;;22.87;47.49;100293.25;1825149;77;21080;-64
2021/08/13 02:40:30;;;;;;;5.12;4.37;;;;;;;22.84;47.55;100293.20;1808705;77;20993;-64
2021/08/13 02:43:21;;;;;;;7.72;4.65;;;;;;;22.82;47.63;100295.86;1816137;77;21056;-65
2021/08/13 02:45:50;;;;;;;8.48;4.55;;;;;;;22.77;47.77;100294.69;1823798;77;22058;-65
2021/08/13 02:48:16;;;;;;;6.78;4.50;;;;;;;22.74;47.94;100297.85;1822353;77;21042;-65
2021/08/13 02:50:46;;;;;;;6.20;5.35;;;;;;;22.73;48.06;100292.66;1793064;77;21513;-65
2021/08/13 02:53:17;;;;;;;5.80;4.72;;;;;;;22.69;48.18;100286.89;1803561;77;21054;-65
2021/08/13 02:56:08;;;;;;;5.28;4.53;;;;;;;22.69;48.21;100296.91;1817859;77;21006;-64
2021/08/13 02:58:50;;;;;;;5.58;4.58;;;;;;;22.67;48.33;100296.31;1814186;77;21508;-66
2021/08/13 03:01:21;;;;;;;6.47;4.70;;;;;;;22.64;48.39;100295.42;1814398;77;21048;-65
2021/08/13 03:03:50;;;;;;;6.37;5.17;;;;;;;22.62;48.46;100292.13;1820112;77;21124;-65
2021/08/13 03:06:19;;;;;;;6.30;4.80;;;;;;;22.61;48.46;100302.67;1807841;77;21789;-65
2021/08/13 03:08:49;;;;;;;7.17;5.03;;;;;;;22.58;48.56;100307.50;1835467;77;21014;-65
2021/08/13 03:11:17;;;;;;;5.15;4.55;;;;;;;22.57;48.60;100309.08;1815505;77;21029;-65
2021/08/13 03:13:45;;;;;;;5.20;4.70;;;;;;;22.55;48.65;100309.31;1847341;77;21030;-65
2021/08/13 03:16:13;;;;;;;6.28;4.80;;;;;;;22.54;48.73;100316.30;1844635;77;21116;-65
2021/08/13 03:18:43;;;;;;;5.85;5.17;;;;;;;22.53;48.81;100321.44;1806700;78;20994;-66
2021/08/13 03:21:11;;;;;;;7.47;5.33;;;;;;;22.52;48.87;100326.04;1826518;77;21022;-65
2021/08/13 03:23:39;;;;;;;8.00;5.58;;;;;;;22.51;48.90;100324.38;1802650;78;21085;-64
2021/08/13 03:26:07;;;;;;;7.28;6.03;;;;;;;22.51;48.91;100327.08;1807870;78;21600;-65
2021/08/13 03:28:35;;;;;;;9.03;7.47;;;;;;;22.50;48.97;100328.66;1820042;78;21014;-65
2021/08/13 03:33:50;;;;;;;8.05;6.53;;;;;;;22.52;49.10;100327.90;1889055;76;22391;-65
2021/08/13 03:36:16;;;;;;;8.40;6.95;;;;;;;22.44;49.20;100329.06;1859964;77;20994;-65
2021/08/13 03:38:42;;;;;;;7.87;7.08;;;;;;;22.45;49.25;100336.14;1860077;77;21102;-65
2021/08/13 03:41:09;;;;;;;8.18;7.30;;;;;;;22.44;49.28;100334.47;1859973;77;20988;-65
2021/08/13 03:43:37;;;;;;;9.10;7.45;;;;;;;22.44;49.33;100331.77;1859971;77;21497;-65
2021/08/13 03:46:05;;;;;;;9.70;7.60;;;;;;;22.43;49.35;100335.55;1859327;77;20996;-66
2021/08/13 03:48:32;;;;;;;8.88;6.95;;;;;;;22.43;49.39;100334.73;1832049;77;21064;-65
2021/08/13 03:50:59;;;;;;;9.60;7.70;;;;;;;22.42;49.43;100338.48;1860351;77;20988;-65
2021/08/13 03:53:25;;;;;;;8.73;7.20;;;;;;;22.40;49.49;100337.35;1857532;77;20922;-65
2021/08/13 03:55:53;;;;;;;8.18;7.12;;;;;;;22.40;49.47;100337.35;1819484;77;21005;-65
2021/08/13 03:58:20;;;;;;;8.33;6.67;;;;;;;22.41;49.47;100349.84;1847059;77;21029;-65
2021/08/13 04:00:46;;;;;;;7.12;6.42;;;;;;;22.40;49.49;100352.23;1862143;75;21005;-65
2021/08/13 04:03:13;;;;;;;10.50;6.80;;;;;;;22.40;49.49;100354.95;1860140;77;21077;-65
2021/08/13 04:05:40;;;;;;;9.90;7.25;;;;;;;22.41;49.50;100354.41;1859823;77;21007;-66
2021/08/13 04:08:07;;;;;;;7.75;6.30;;;;;;;22.42;49.46;100357.42;1840681;77;21555;-65
2021/08/13 04:10:34;;;;;;;7.00;6.15;;;;;;;22.43;49.46;100352.33;1852757;77;20977;-65
2021/08/13 04:13:03;;;;;;;7.15;5.83;;;;;;;22.44;49.53;100353.95;1859915;77;21076;-66
2021/08/13 04:15:31;;;;;;;6.55;5.95;;;;;;;22.44;49.58;100354.77;1837203;77;22410;-65
2021/08/13 04:17:59;;;;;;;10.05;5.62;;;;;;;22.45;49.53;100353.73;1828655;77;21016;-66
2021/08/13 04:20:28;;;;;;;7.00;5.42;;;;;;;22.47;49.56;100354.86;1838329;77;21051;-65
2021/08/13 04:22:58;;;;;;;7.45;5.42;;;;;;;22.48;49.59;100354.61;1823964;77;21031;-66
2021/08/13 04:25:26;;;;;;;8.35;5.37;;;;;;;22.49;49.56;100356.27;1861945;77;20989;-65
2021/08/13 04:27:54;;;;;;;6.65;4.65;;;;;;;22.49;49.52;100358.98;1857850;77;21820;-65
2021/08/13 04:30:22;;;;;;;6.62;4.67;;;;;;;22.51;49.60;100359.57;1834190;77;21032;-65
2021/08/13 04:32:50;;;;;;;5.17;4.67;;;;;;;22.52;49.63;100366.65;1859782;77;21521;-65
2021/08/13 04:35:17;;;;;;;6.30;4.25;;;;;;;22.54;49.59;100371.30;1848092;77;21021;-65
2021/08/13 04:37:44;;;;;;;5.25;4.58;;;;;;;22.55;49.65;100370.77;1821398;77;21133;-65
2021/08/13 04:40:12;;;;;;;6.40;4.05;;;;;;;22.56;49.58;100368.34;1857339;77;21119;-65
2021/08/13 04:42:43;;;;;;;4.83;4.17;;;;;;;22.57;49.63;100380.30;1839736;77;21024;-66
2021/08/13 04:45:10;;;;;;;6.10;4.37;;;;;;;22.57;49.63;100377.59;1853785;77;21064;-65
2021/08/13 04:47:38;;;;;;;5.83;4.53;;;;;;;22.59;49.61;100377.36;1839830;77;21294;-66
2021/08/13 04:50:06;;;;;;;6.37;4.45;;;;;;;22.59;49.55;100376.01;1832649;77;21075;-66
2021/08/13 04:52:34;;;;;;;6.58;4.65;;;;;;;22.62;49.59;100380.97;1844769;77;21136;-65
2021/08/13 04:55:02;;;;;;;6.17;4.45;;;;;;;22.63;49.62;100376.37;1788946;77;21029;-65
2021/08/13 04:57:29;;;;;;;5.35;4.20;;;;;;;22.66;49.67;100385.40;1859220;77;21068;-64
2021/08/13 04:59:58;;;;;;;7.00;4.45;;;;;;;22.66;49.73;100379.45;1859283;77;21052;-66
2021/08/13 05:02:25;;;;;;;4.85;4.35;;;;;;;22.68;49.75;100381.93;1861564;77;21060;-65
2021/08/13 05:05:00;;;;;;;7.80;4.45;;;;;;;22.70;49.68;100386.58;1859065;77;20990;-66
2021/08/13 05:07:29;;;;;;;6.30;4.28;;;;;;;22.73;49.75;100383.39;1859294;77;23757;-65
2021/08/13 05:09:56;;;;;;;7.65;6.47;;;;;;;22.75;49.73;100383.98;1861388;77;21049;-65
2021/08/13 05:12:23;;;;;;;9.58;7.30;;;;;;;22.76;49.83;100380.23;1851669;77;21033;-65
2021/08/13 05:14:49;;;;;;;10.55;5.80;;;;;;;22.79;49.83;100378.39;1848768;77;21080;-66
2021/08/13 05:17:16;;;;;;;8.08;5.05;;;;;;;22.83;49.82;100382.81;1852022;77;21848;-66
2021/08/13 05:19:44;;;;;;;4.87;4.25;;;;;;;22.85;49.84;100387.47;1858741;77;21017;-65
2021/08/13 05:22:10;;;;;;;7.72;5.15;;;;;;;22.88;49.85;100388.37;1842595;77;22040;-66
2021/08/13 05:24:37;;;;;;;5.87;3.70;;;;;;;22.91;49.88;100395.50;1846617;77;21025;-66
2021/08/13 05:27:04;;;;;;;8.28;4.10;;;;;;;22.92;49.94;100390.36;1836969;77;21032;-66
2021/08/13 05:29:34;;;;;;;4.53;3.58;;;;;;;22.96;49.97;100393.44;1860085;77;21022;-67
2021/08/13 05:32:01;;;;;;;7.08;4.17;;;;;;;22.97;50.03;100395.09;1861155;77;21060;-66
2021/08/13 05:34:28;;;;;;;4.10;3.70;;;;;;;23.00;50.07;100393.26;1859287;77;20965;-68
2021/08/13 05:36:56;;;;;;;4.37;3.85;;;;;;;23.02;50.13;100387.61;1859860;77;21497;-66
2021/08/13 05:39:23;;;;;;;6.30;3.95;;;;;;;23.04;50.21;100386.34;1860903;77;21048;-65
2021/08/13 05:41:50;;;;;;;4.53;3.75;;;;;;;23.07;50.24;100388.59;1862228;77;21065;-67
2021/08/13 05:44:16;;;;;;;4.90;4.00;;;;;;;23.11;50.28;100391.66;1860919;77;21928;-66
2021/08/13 05:46:43;;;;;;;4.65;4.15;;;;;;;23.13;50.39;100387.64;1858646;77;21053;-66
2021/08/13 05:49:09;;;;;;;12.15;9.20;;;;;;;23.16;50.34;100394.50;1859147;77;20978;-66
2021/08/13 05:51:36;;;;;;;13.60;12.07;;;;;;;23.19;50.33;100398.08;1861698;77;20989;-65
2021/08/13 05:54:03;;;;;;;9.38;8.48;;;;;;;23.21;50.31;100394.59;1859264;77;22374;-65
2021/08/13 05:56:30;;;;;;;8.35;6.20;;;;;;;23.25;50.34;100400.38;1858828;77;21033;-65
2021/08/13 05:59:00;;;;;;;7.75;4.87;;;;;;;23.27;50.25;100403.13;1830767;77;21024;-65
2021/08/13 06:01:27;;;;;;;6.42;4.92;;;;;;;23.29;50.29;100403.72;1859109;77;21259;-66
2021/08/13 06:03:54;;;;;;;6.15;4.42;;;;;;;23.32;50.24;100396.48;1823841;77;21028;-66
2021/08/13 06:06:21;;;;;;;5.75;4.15;;;;;;;23.35;50.30;100402.80;1838463;77;21122;-65
2021/08/13 06:08:49;;;;;;;6.37;4.03;;;;;;;23.39;50.18;100404.48;1859241;77;21516;-66
2021/08/13 06:11:17;;;;;;;4.62;4.17;;;;;;;23.42;50.13;100406.73;1853277;77;21528;-65
2021/08/13 06:13:44;;;;;;;4.75;3.90;;;;;;;23.44;50.02;100409.22;1841587;77;21005;-65
2021/08/13 06:16:11;;;;;;;5.42;4.03;;;;;;;23.47;49.97;100412.79;1843696;76;21053;-66
2021/08/13 06:18:38;;;;;;;5.05;4.20;;;;;;;23.50;49.85;100409.08;1822706;77;21825;-64
2021/08/13 06:21:06;;;;;;;7.33;4.42;;;;;;;23.52;49.82;100411.02;1849086;77;20997;-65
2021/08/13 06:23:34;;;;;;;6.15;3.85;;;;;;;23.55;49.82;100409.20;1860495;77;21013;-66
2021/08/13 06:26:01;;;;;;;7.60;4.58;;;;;;;23.59;49.93;100407.38;1860269;77;21556;-65
2021/08/13 06:28:30;;;;;;;4.05;3.40;;;;;;;23.62;49.94;100408.24;1859318;77;21033;-66
2021/08/13 06:30:56;;;;;;;5.90;3.67;;;;;;;23.64;49.81;100404.25;1859149;77;21187;-66
2021/08/13 06:33:23;;;;;;;5.55;4.00;;;;;;;23.68;49.62;100405.42;1863334;76;21005;-66
2021/08/13 06:35:50;;;;;;;4.47;3.58;;;;;;;23.69;49.44;100401.62;1844395;75;20989;-65
2021/08/13 06:38:17;;;;;;;5.40;4.03;;;;;;;23.72;49.41;100405.23;1858252;77;21563;-66
2021/08/13 06:40:43;;;;;;;6.17;4.12;;;;;;;23.75;49.28;100403.37;1847833;77;21480;-65
2021/08/13 06:43:10;;;;;;;7.67;4.97;;;;;;;23.79;49.29;100411.08;1826483;77;21140;-66
2021/08/13 06:45:39;;;;;;;8.53;6.45;;;;;;;23.81;49.23;100407.59;1852849;77;21009;-65
2021/08/13 06:48:10;;;;;;;7.08;5.42;;;;;;;23.84;49.16;100404.41;1851112;77;20994;-64
2021/08/13 06:50:37;;;;;;;5.97;4.60;;;;;;;23.87;49.24;100403.92;1849694;77;21129;-66
2021/08/13 06:53:05;;;;;;;7.03;4.42;;;;;;;23.90;49.11;100408.88;1827465;77;21071;-65
2021/08/13 06:55:31;;;;;;;5.42;4.30;;;;;;;23.93;49.03;100412.45;1862354;77;21131;-65
2021/08/13 06:58:03;;;;;;;8.00;3.98;;;;;;;23.96;48.87;100410.63;1865254;77;21477;-65
2021/08/13 07:00:32;;;;;;;4.03;3.42;;;;;;;23.98;48.83;100412.56;1865423;76;20999;-67
2021/08/13 07:02:58;;;;;;;7.30;5.35;;;;;;;24.02;48.91;100419.16;1845509;76;21013;-65
2021/08/13 07:05:25;;;;;;;11.50;8.50;;;;;;;24.06;48.93;100423.03;1857223;77;20992;-65
2021/08/13 07:07:52;;;;;;;8.60;7.20;;;;;;;24.08;48.89;100414.11;1865376;76;21079;-65
2021/08/13 07:10:18;;;;;;;6.15;4.47;;;;;;;24.12;48.64;100416.63;1865172;77;20965;-66
2021/08/13 07:12:46;;;;;;;6.90;4.75;;;;;;;24.15;48.58;100418.06;1865091;76;20994;-66
2021/08/13 07:15:12;;;;;;;6.55;3.87;;;;;;;24.19;48.39;100416.51;1861477;76;21017;-67
2021/08/13 07:17:40;;;;;;;5.50;4.10;;;;;;;24.21;48.36;100414.91;1856720;76;20985;-65
2021/08/13 07:20:08;;;;;;;5.85;4.08;;;;;;;24.25;48.33;100419.61;1865357;76;21901;-65
2021/08/13 07:22:34;;;;;;;5.20;3.47;;;;;;;24.28;48.25;100412.86;1865454;76;20993;-67
2021/08/13 07:25:02;;;;;;;5.97;3.85;;;;;;;24.32;48.11;100418.12;1854235;77;20984;-65
2021/08/13 07:27:28;;;;;;;4.90;3.65;;;;;;;24.34;48.04;100415.98;1848541;76;20998;-65
2021/08/13 07:29:55;;;;;;;6.05;3.70;;;;;;;24.39;48.05;100414.70;1829515;75;21036;-67
2021/08/13 07:32:22;;;;;;;7.30;4.03;;;;;;;24.42;48.11;100416.13;1824964;77;21876;-66
2021/08/13 07:34:48;;;;;;;7.17;3.87;;;;;;;24.46;48.04;100417.28;1856842;77;21016;-66
2021/08/13 07:37:17;;;;;;;7.58;3.85;;;;;;;24.49;47.84;100420.85;1865181;77;21004;-65
2021/08/13 07:39:44;;;;;;;4.58;3.72;;;;;;;24.52;47.68;100422.58;1836760;77;21032;-65
2021/08/13 07:42:10;;;;;;;5.33;3.80;;;;;;;24.55;47.59;100419.09;1852915;77;21579;-65
2021/08/13 07:44:37;;;;;;;6.92;4.03;;;;;;;24.57;47.61;100421.88;1825805;77;21048;-65
2021/08/13 07:47:04;;;;;;;4.05;3.60;;;;;;;24.61;47.47;100423.54;1840837;77;21040;-65
2021/08/13 07:49:33;;;;;;;5.08;3.37;;;;;;;24.64;47.30;100427.13;1864842;77;21071;-67
2021/08/13 07:51:59;;;;;;;5.37;3.75;;;;;;;24.67;47.19;100418.52;1858413;77;21044;-66
2021/08/13 07:54:26;;;;;;;3.58;3.20;;;;;;;24.71;46.98;100407.44;1813683;77;21532;-66
2021/08/13 07:56:53;;;;;;;4.35;3.55;;;;;;;24.75;46.77;100407.23;1865092;77;21131;-65
2021/08/13 07:59:20;;;;;;;3.25;2.75;;;;;;;24.79;46.56;100403.49;1865079;77;21033;-67
2021/08/13 08:01:49;;;;;;;3.80;3.10;;;;;;;24.82;46.49;100402.47;1865107;77;21077;-65
2021/08/13 08:04:15;;;;;;;5.00;3.83;;;;;;;24.86;46.47;100409.56;1865207;77;21056;-65
2021/08/13 08:06:42;;;;;;;3.75;2.95;;;;;;;24.90;46.39;100403.95;1858209;77;20990;-65
2021/08/13 08:09:09;;;;;;;8.05;3.87;;;;;;;24.92;46.31;100397.73;1864596;77;22429;-65
2021/08/13 08:11:35;;;;;;;5.10;2.70;;;;;;;24.97;46.28;100398.34;1857463;77;21548;-66
2021/08/13 08:14:02;;;;;;;4.10;2.98;;;;;;;25.00;46.11;100405.47;1858097;77;21080;-66
2021/08/13 08:16:28;;;;;;;4.45;3.42;;;;;;;25.04;45.96;100403.89;1845480;77;20986;-65
2021/08/13 08:18:54;;;;;;;4.10;2.87;;;;;;;25.08;45.83;100400.15;1843644;77;21012;-66
2021/08/13 08:21:21;;;;;;;4.33;3.27;;;;;;;25.11;45.61;100402.36;1827170;77;22958;-66
2021/08/13 08:23:49;;;;;;;5.15;3.17;;;;;;;25.15;45.59;100408.12;1843938;77;21047;-67
2021/08/13 08:26:15;;;;;;;3.25;2.87;;;;;;;25.18;45.45;100401.66;1865625;76;21651;-67
2021/08/13 08:28:42;;;;;;;3.72;3.30;;;;;;;25.22;45.21;100409.63;1865435;76;21033;-66
2021/08/13 08:31:08;;;;;;;4.58;3.05;;;;;;;25.25;45.12;100409.14;1865756;76;20997;-66
2021/08/13 08:33:35;;;;;;;3.33;3.02;;;;;;;25.28;45.08;100407.81;1863821;76;21103;-65
2021/08/13 08:36:01;;;;;;;4.40;3.17;;;;;;;25.31;45.08;100400.53;1860563;77;20994;-68
2021/08/13 08:38:28;;;;;;;3.52;3.22;;;;;;;25.37;44.62;100405.50;1859386;77;21045;-66
2021/08/13 08:40:54;;;;;;;4.90;3.30;;;;;;;25.40;44.40;100399.55;1840524;77;21072;-66
2021/08/13 08:43:20;;;;;;;4.72;3.10;;;;;;;25.45;44.29;100396.91;1852194;77;21048;-66
2021/08/13 08:45:46;;;;;;;4.15;3.00;;;;;;;25.48;44.24;100404.03;1859043;77;21105;-67
2021/08/13 08:48:12;;;;;;;5.40;3.42;;;;;;;25.54;43.94;100402.21;1841511;77;21581;-68
2021/08/13 08:50:41;;;;;;;4.90;3.10;;;;;;;25.58;43.64;100406.07;1859356;77;21073;-66
2021/08/13 08:53:23;;;;;;;3.33;2.80;;;;;;;25.63;43.75;100399.34;1859755;77;21536;-70
2021/08/13 08:55:51;;;;;;;3.52;2.90;;;;;;;25.67;43.47;100399.64;1837376;77;21006;-67
2021/08/13 08:58:19;;;;;;;3.92;3.12;;;;;;;25.72;43.34;100404.34;1859272;76;21142;-67
2021/08/13 09:00:47;;;;;;;3.55;3.10;;;;;;;25.74;43.50;100405.73;1830743;77;21112;-66
2021/08/13 09:03:15;;;;;;;4.22;2.98;;;;;;;25.78;43.47;100402.78;1859588;77;21083;-66
2021/08/13 09:05:41;;;;;;;7.35;3.50;;;;;;;25.83;43.39;100406.94;1832185;77;21037;-66
2021/08/13 09:08:08;;;;;;;3.98;3.20;;;;;;;25.86;42.86;100401.00;1818897;77;21080;-66
2021/08/13 09:10:35;;;;;;;3.55;3.25;;;;;;;25.91;43.05;100407.06;1852306;77;21181;-65
2021/08/13 09:13:05;;;;;;;4.42;3.20;;;;;;;25.95;42.98;100396.49;1859125;77;21080;-67
2021/08/13 09:15:35;;;;;;;3.80;3.37;;;;;;;25.99;42.65;100398.44;1859337;77;21114;-66
2021/08/13 09:18:24;;;;;;;3.50;3.17;;;;;;;26.04;42.21;100397.16;1822841;77;21064;-66
2021/08/13 09:20:56;;;;;;;4.53;3.00;;;;;;;26.09;42.13;100403.99;1818519;77;21021;-68
2021/08/13 09:23:39;;;;;;;4.15;2.83;;;;;;;26.14;41.80;100405.97;1859067;77;21862;-67
2021/08/13 09:26:10;;;;;;;3.37;3.08;;;;;;;26.20;41.75;100402.77;1832174;77;21111;-66
2021/08/13 09:29:02;;;;;;;3.62;3.27;;;;;;;26.24;41.58;100401.98;1859342;77;21528;-66
2021/08/13 09:31:51;;;;;;;3.60;2.70;;;;;;;26.31;41.88;100394.15;1849770;77;21675;-66
2021/08/13 09:34:27;;;;;;;5.22;2.92;;;;;;;26.37;41.21;100393.14;1821436;77;21005;-66
2021/08/13 09:36:54;;;;;;;3.83;2.90;;;;;;;26.42;41.20;100399.44;1863632;76;21206;-66
2021/08/13 09:39:30;;;;;;;3.52;3.05;;;;;;;26.49;41.23;100393.25;1865519;76;21068;-65
2021/08/13 09:41:59;;;;;;;4.25;3.10;;;;;;;26.54;41.21;100393.02;1850502;76;21548;-67
2021/08/13 09:44:31;;;;;;;3.45;2.98;;;;;;;26.60;40.94;100396.94;1865404;76;21001;-68
2021/08/13 09:47:04;;;;;;;3.50;3.15;;;;;;;26.68;40.94;100405.17;1865328;76;21047;-66
2021/08/13 09:49:32;;;;;;;;;;;;;;;26.75;40.89;100389.95;1868412;76;21768;-67
2021/08/13 09:52:15;;;;;;;3.55;2.62;;;;;;;26.81;40.68;100396.57;1864971;77;20181;-65
2021/08/13 09:54:45;;;;;;;4.15;2.85;;;;;;;26.84;40.76;100404.76;1841253;77;21044;-65
2021/08/13 09:57:14;;;;;;;6.47;3.55;;;;;;;26.90;40.43;100400.17;1835004;77;21056;-67
2021/08/13 10:00:06;;;;;;;5.50;3.12;;;;;;;26.97;40.19;100398.05;1844978;77;21025;-66
2021/08/13 10:02:39;;;;;;;4.37;2.92;;;;;;;27.04;39.82;100402.72;1840734;77;21207;-65
2021/08/13 10:05:25;;;;;;;3.45;3.15;;;;;;;27.12;39.72;100403.63;1865397;76;21524;-67
2021/08/13 10:07:56;;;;;;;3.60;2.62;;;;;;;27.19;39.28;100402.02;1849065;76;21084;-65
2021/08/13 10:10:35;;;;;;;4.90;3.10;;;;;;;27.26;39.10;100399.92;1855137;76;21052;-65
2021/08/13 10:13:05;;;;;;;3.58;2.90;;;;;;;27.33;39.28;100387.40;1856669;76;21536;-66
2021/08/13 10:15:47;;;;;;;4.72;2.90;;;;;;;27.42;39.28;100394.01;1865435;76;21036;-65
2021/08/13 10:18:16;;;;;;;4.70;3.20;;;;;;;27.49;39.45;100388.30;1865165;77;20993;-66
2021/08/13 10:20:48;;;;;;;3.70;3.40;;;;;;;27.54;39.15;100385.61;1858278;77;21053;-65
2021/08/13 10:23:17;;;;;;;3.30;3.00;;;;;;;27.58;39.27;100390.29;1856745;77;21024;-66
2021/08/13 10:25:44;;;;;;;5.58;2.85;;;;;;;27.63;39.14;100394.94;1865664;76;21072;-66
2021/08/13 10:28:12;;;;;;;3.58;2.98;;;;;;;27.68;39.15;100392.77;1865134;76;21137;-65
2021/08/13 10:30:41;;;;;;;4.25;3.60;;;;;;;27.74;39.06;100393.05;1846844;76;21510;-66
2021/08/13 10:33:09;;;;;;;3.50;2.92;;;;;;;27.79;38.94;100389.80;1858013;76;21071;-66
2021/08/13 10:35:57;;;;;;;3.52;3.22;;;;;;;27.87;38.65;100384.92;1863453;76;21485;-65
2021/08/13 10:38:25;;;;;;;3.15;2.85;;;;;;;27.92;38.57;100387.16;1838210;77;21473;-66
2021/08/13 10:40:52;;;;;;;3.35;3.00;;;;;;;27.98;38.52;100385.27;1862892;77;21047;-66
2021/08/13 10:43:23;;;;;;;3.50;3.20;;;;;;;28.03;38.45;100387.48;1834589;77;21012;-66
2021/08/13 10:45:52;;;;;;;3.22;2.92;;;;;;;28.09;38.50;100395.14;1842486;77;20978;-66
2021/08/13 10:48:27;;;;;;;3.70;3.10;;;;;;;28.16;38.19;100382.58;1862205;77;21033;-67
2021/08/13 10:50:59;;;;;;;3.12;2.52;;;;;;;28.23;38.21;100385.89;1863024;77;21016;-66
2021/08/13 10:53:35;;;;;;;5.95;3.20;;;;;;;28.29;38.21;100383.43;1861694;77;21138;-65
2021/08/13 10:56:06;;;;;;;2.87;2.67;;;;;;;28.37;38.05;100382.89;1852682;77;21036;-65
2021/08/13 10:58:41;;;;;;;3.80;3.30;;;;;;;28.44;37.99;100386.19;1830712;77;21479;-67
2021/08/13 11:01:23;;;;;;;3.72;3.27;;;;;;;28.51;37.90;100384.61;1846214;77;21006;-65
2021/08/13 11:04:00;;;;;;;3.87;3.58;;;;;;;28.58;37.79;100380.22;1845812;77;20994;-65
2021/08/13 11:06:41;;;;;;;4.22;3.20;;;;;;;28.63;37.59;100381.05;1850171;77;21936;-64
2021/08/13 11:09:23;;;;;;;3.12;2.83;;;;;;;28.69;37.84;100386.52;1853213;77;21099;-66
2021/08/13 11:11:57;;;;;;;3.27;2.97;;;;;;;28.73;38.03;100384.33;1850643;77;21064;-66
2021/08/13 11:14:28;;;;;;;6.47;3.30;;;;;;;28.78;38.01;100382.13;1862619;77;21522;-66
2021/08/13 11:16:56;;;;;;;3.42;3.12;;;;;;;28.85;37.66;100381.87;1847837;77;21048;-67
2021/08/13 11:19:24;;;;;;;3.55;2.90;;;;;;;28.90;37.50;100376.41;1854169;77;21021;-66
2021/08/13 11:21:55;;;;;;;4.05;3.65;;;;;;;28.98;37.24;100375.28;1853905;77;21011;-66
2021/08/13 11:24:26;;;;;;;3.50;3.17;;;;;;;29.05;37.27;100372.25;1831420;77;21084;-66
2021/08/13 11:27:00;;;;;;;3.50;3.12;;;;;;;29.12;37.46;100384.30;1862759;77;21017;-65
2021/08/13 11:29:33;;;;;;;3.22;2.90;;;;;;;29.17;37.45;100387.88;1846423;77;20989;-65
2021/08/13 11:32:25;;;;;;;3.70;3.40;;;;;;;29.23;37.44;100380.48;1846155;77;21108;-65
2021/08/13 11:35:04;;;;;;;4.42;3.65;;;;;;;29.29;37.21;100369.79;1863272;77;21005;-65
2021/08/13 11:37:41;;;;;;;4.42;3.05;;;;;;;29.35;36.91;100367.30;1865074;77;21040;-66
2021/08/13 11:40:19;;;;;;;5.85;3.37;;;;;;;29.43;36.95;100368.65;1865373;77;21020;-66